createdAt,value
2022-07-26T00:00:57.865Z,18.23
2022-07-26T00:02:01.941Z,18.23
2022-07-26T00:03:05.771Z,18.23
2022-07-26T00:04:09.153Z,18.23
2022-07-26T00:05:11.722Z,18.23
2022-07-26T00:06:15.065Z,18.23
2022-07-26T00:07:18.224Z,18.22
2022-07-26T00:08:20.336Z,18.22
2022-07-26T00:09:24.524Z,18.20
2022-07-26T00:10:26.873Z,18.19
2022-07-26T00:11:33.620Z,18.19
2022-07-26T00:12:36.115Z,18.18
2022-07-26T00:13:39.566Z,18.18
2022-07-26T00:14:42.854Z,18.18
2022-07-26T00:15:46.057Z,18.17
2022-07-26T00:16:50.326Z,18.14
2022-07-26T00:17:52.577Z,18.15
2022-07-26T00:18:57.793Z,18.14
2022-07-26T00:20:00.256Z,18.11
2022-07-26T00:21:03.342Z,18.10
2022-07-26T00:22:24.070Z,18.09
2022-07-26T00:23:27.320Z,18.08
2022-07-26T00:24:35.100Z,18.06
2022-07-26T00:25:38.573Z,18.04
2022-07-26T00:26:40.675Z,18.03
2022-07-26T00:27:43.735Z,18.03
2022-07-26T00:28:47.640Z,18.03
2022-07-26T00:29:50.924Z,18.03
2022-07-26T00:30:53.103Z,18.02
2022-07-26T00:31:56.788Z,18.03
2022-07-26T00:32:59.338Z,18.03
2022-07-26T00:34:03.856Z,18.01
2022-07-26T00:35:07.143Z,17.99
2022-07-26T00:36:10.582Z,17.99
2022-07-26T00:37:15.952Z,17.98
2022-07-26T00:38:22.955Z,17.99
2022-07-26T00:39:25.349Z,17.99
2022-07-26T00:40:28.776Z,17.99
2022-07-26T00:41:31.939Z,18.00
2022-07-26T00:42:35.982Z,18.00
2022-07-26T00:43:38.566Z,18.00
2022-07-26T00:44:46.812Z,17.98
2022-07-26T00:45:50.663Z,17.98
2022-07-26T00:46:54.297Z,17.97
2022-07-26T00:47:56.476Z,17.96
2022-07-26T00:49:00.387Z,17.97
2022-07-26T00:50:04.856Z,17.96
2022-07-26T00:51:08.034Z,17.96
2022-07-26T00:52:11.571Z,17.96
2022-07-26T00:53:15.520Z,17.96
2022-07-26T00:54:18.129Z,17.95
2022-07-26T00:55:21.962Z,17.94
2022-07-26T00:56:24.889Z,17.94
2022-07-26T00:57:28.321Z,17.93
2022-07-26T00:58:30.663Z,17.92
2022-07-26T00:59:34.543Z,17.90
2022-07-26T01:00:37.945Z,17.91
2022-07-26T01:01:42.239Z,17.87
2022-07-26T01:02:45.606Z,17.88
2022-07-26T01:03:53.493Z,17.87
2022-07-26T01:04:58.434Z,17.85
2022-07-26T01:06:03.417Z,17.85
2022-07-26T01:07:14.847Z,17.84
2022-07-26T01:08:18.693Z,17.83
2022-07-26T01:09:21.372Z,17.83
2022-07-26T01:10:25.270Z,17.82
2022-07-26T01:11:28.117Z,17.81
2022-07-26T01:12:31.403Z,17.82
2022-07-26T01:13:35.522Z,17.81
2022-07-26T01:14:42.977Z,17.81
2022-07-26T01:15:45.056Z,17.80
2022-07-26T01:16:48.264Z,17.79
2022-07-26T01:17:50.514Z,17.78
2022-07-26T01:18:55.817Z,17.76
2022-07-26T01:19:58.513Z,17.73
2022-07-26T01:21:13.452Z,17.72
2022-07-26T01:22:17.805Z,17.69
2022-07-26T01:23:22.433Z,17.69
2022-07-26T01:24:24.585Z,17.67
2022-07-26T01:25:31.647Z,17.64
2022-07-26T01:26:34.284Z,17.63
2022-07-26T01:27:42.576Z,17.62
2022-07-26T01:28:46.830Z,17.60
2022-07-26T01:29:54.077Z,17.58
2022-07-26T01:30:56.639Z,17.56
2022-07-26T01:32:00.025Z,17.52
2022-07-26T01:33:02.447Z,17.51
2022-07-26T01:34:11.131Z,17.46
2022-07-26T01:35:16.882Z,17.44
2022-07-26T01:36:20.546Z,17.41
2022-07-26T01:37:25.044Z,17.39
2022-07-26T01:38:28.033Z,17.36
2022-07-26T01:39:31.328Z,17.34
2022-07-26T01:40:34.235Z,17.32
2022-07-26T01:41:38.565Z,17.32
2022-07-26T01:42:41.608Z,17.29
2022-07-26T01:43:45.231Z,17.27
2022-07-26T01:44:48.398Z,17.26
2022-07-26T01:45:52.779Z,17.22
2022-07-26T01:46:55.239Z,17.20
2022-07-26T01:47:58.754Z,17.20
2022-07-26T01:49:02.105Z,17.18
2022-07-26T01:50:06.706Z,17.16
2022-07-26T01:51:08.917Z,17.15
2022-07-26T01:52:12.390Z,17.15
2022-07-26T01:53:16.213Z,17.09
2022-07-26T01:54:22.526Z,17.13
2022-07-26T01:55:27.541Z,17.11
2022-07-26T01:56:31.096Z,17.10
2022-07-26T01:57:33.150Z,17.09
2022-07-26T01:58:36.236Z,17.10
2022-07-26T01:59:38.329Z,17.07
2022-07-26T02:00:41.893Z,17.06
2022-07-26T02:01:44.315Z,17.06
2022-07-26T02:02:47.724Z,17.06
2022-07-26T02:03:50.848Z,17.05
2022-07-26T02:04:59.863Z,17.05
2022-07-26T02:06:03.727Z,17.04
2022-07-26T02:07:13.007Z,17.04
2022-07-26T02:08:18.140Z,17.04
2022-07-26T02:09:24.758Z,17.03
2022-07-26T02:10:50.789Z,17.02
2022-07-26T02:11:53.168Z,16.99
2022-07-26T02:12:56.505Z,16.99
2022-07-26T02:13:58.638Z,16.98
2022-07-26T02:15:02.331Z,16.97
2022-07-26T02:16:07.047Z,16.96
2022-07-26T02:17:10.719Z,16.95
2022-07-26T02:18:13.621Z,16.94
2022-07-26T02:19:17.215Z,16.93
2022-07-26T02:20:19.506Z,16.93
2022-07-26T02:21:22.880Z,16.92
2022-07-26T02:22:25.300Z,16.92
2022-07-26T02:23:30.771Z,16.90
2022-07-26T02:24:33.843Z,16.90
2022-07-26T02:25:36.968Z,16.90
2022-07-26T02:26:38.994Z,16.89
2022-07-26T02:27:43.347Z,16.89
2022-07-26T02:28:46.269Z,16.88
2022-07-26T02:29:49.765Z,16.88
2022-07-26T02:30:52.197Z,16.88
2022-07-26T02:31:56.074Z,16.87
2022-07-26T02:32:58.076Z,16.87
2022-07-26T02:34:01.451Z,16.87
2022-07-26T02:35:04.542Z,16.86
2022-07-26T02:36:08.984Z,16.85
2022-07-26T02:37:13.521Z,16.82
2022-07-26T02:38:20.266Z,16.82
2022-07-26T02:39:28.152Z,16.81
2022-07-26T02:40:31.485Z,16.81
2022-07-26T02:41:33.610Z,16.80
2022-07-26T02:42:36.813Z,16.79
2022-07-26T02:43:39.351Z,16.79
2022-07-26T02:44:43.115Z,16.80
2022-07-26T02:46:01.711Z,16.80
2022-07-26T02:47:05.941Z,16.80
2022-07-26T02:48:08.794Z,16.81
2022-07-26T02:49:12.994Z,16.80
2022-07-26T02:50:17.610Z,16.80
2022-07-26T02:51:21.151Z,16.81
2022-07-26T02:52:23.430Z,16.81
2022-07-26T02:53:26.639Z,16.81
2022-07-26T02:54:30.202Z,16.81
2022-07-26T02:55:33.502Z,16.81
2022-07-26T02:56:35.827Z,16.80
2022-07-26T02:57:45.413Z,16.80
2022-07-26T02:58:49.217Z,16.80
2022-07-26T02:59:52.630Z,16.80
2022-07-26T03:00:57.134Z,16.81
2022-07-26T03:01:59.672Z,16.82
2022-07-26T03:03:03.304Z,16.83
2022-07-26T03:04:07.907Z,16.86
2022-07-26T03:05:11.731Z,16.87
2022-07-26T03:06:13.869Z,16.89
2022-07-26T03:07:16.936Z,16.90
2022-07-26T03:08:20.181Z,16.93
2022-07-26T03:09:22.253Z,16.95
2022-07-26T03:10:26.771Z,16.96
2022-07-26T03:11:29.032Z,16.94
2022-07-26T03:12:32.641Z,16.98
2022-07-26T03:13:34.792Z,16.99
2022-07-26T03:14:37.905Z,17.00
2022-07-26T03:15:40.322Z,17.00
2022-07-26T03:16:43.728Z,17.01
2022-07-26T03:17:46.152Z,17.00
2022-07-26T03:18:49.914Z,17.01
2022-07-26T03:19:52.176Z,17.02
2022-07-26T03:20:55.405Z,17.02
2022-07-26T03:21:58.094Z,17.02
2022-07-26T03:23:01.443Z,17.03
2022-07-26T03:24:03.973Z,17.04
2022-07-26T03:25:07.664Z,17.04
2022-07-26T03:26:11.238Z,17.06
2022-07-26T03:27:14.285Z,17.07
2022-07-26T03:28:19.477Z,17.08
2022-07-26T03:29:23.828Z,17.08
2022-07-26T03:30:26.498Z,17.09
2022-07-26T03:31:29.900Z,17.10
2022-07-26T03:32:31.988Z,17.12
2022-07-26T03:33:35.141Z,17.12
2022-07-26T03:34:37.424Z,17.14
2022-07-26T03:35:40.467Z,17.14
2022-07-26T03:36:44.086Z,17.16
2022-07-26T03:37:47.356Z,17.16
2022-07-26T03:38:49.440Z,17.18
2022-07-26T03:39:52.766Z,17.18
2022-07-26T03:40:54.867Z,17.20
2022-07-26T03:41:59.463Z,17.22
2022-07-26T03:43:01.574Z,17.23
2022-07-26T03:44:06.701Z,17.25
2022-07-26T03:45:09.585Z,17.25
2022-07-26T03:46:12.650Z,17.26
2022-07-26T03:47:14.903Z,17.30
2022-07-26T03:48:17.980Z,17.31
2022-07-26T03:49:20.215Z,17.32
2022-07-26T03:50:23.398Z,17.34
2022-07-26T03:51:25.487Z,17.35
2022-07-26T03:52:28.604Z,17.36
2022-07-26T03:53:30.799Z,17.37
2022-07-26T03:54:33.953Z,17.37
2022-07-26T03:55:54.682Z,17.38
2022-07-26T03:56:58.069Z,17.39
2022-07-26T03:58:00.127Z,17.40
2022-07-26T03:59:05.976Z,17.40
2022-07-26T04:00:10.574Z,17.41
2022-07-26T04:01:12.822Z,17.42
2022-07-26T04:02:15.963Z,17.42
2022-07-26T04:03:19.412Z,17.44
2022-07-26T04:04:25.129Z,17.44
2022-07-26T04:05:28.041Z,17.45
2022-07-26T04:06:31.596Z,17.47
2022-07-26T04:07:33.720Z,17.47
2022-07-26T04:08:36.838Z,17.48
2022-07-26T04:09:39.906Z,17.48
2022-07-26T04:10:45.841Z,17.48
2022-07-26T04:11:49.172Z,17.49
2022-07-26T04:12:53.034Z,17.49
2022-07-26T04:13:56.086Z,17.48
2022-07-26T04:14:58.180Z,17.47
2022-07-26T04:16:03.530Z,17.48
2022-07-26T04:17:05.606Z,17.47
2022-07-26T04:18:08.820Z,17.49
2022-07-26T04:19:11.005Z,17.49
2022-07-26T04:20:14.212Z,17.48
2022-07-26T04:21:16.397Z,17.49
2022-07-26T04:22:19.548Z,17.49
2022-07-26T04:23:21.870Z,17.50
2022-07-26T04:24:25.549Z,17.51
2022-07-26T04:25:27.814Z,17.50
2022-07-26T04:26:43.630Z,17.50
2022-07-26T04:27:45.762Z,17.50
2022-07-26T04:28:50.232Z,17.50
2022-07-26T04:29:52.309Z,17.50
2022-07-26T04:30:55.453Z,17.50
2022-07-26T04:31:57.562Z,17.50
2022-07-26T04:33:00.556Z,17.49
2022-07-26T04:34:02.659Z,17.47
2022-07-26T04:35:06.428Z,17.47
2022-07-26T04:36:09.163Z,17.45
2022-07-26T04:37:12.218Z,17.45
2022-07-26T04:38:14.372Z,17.43
2022-07-26T04:39:17.389Z,17.40
2022-07-26T04:40:21.677Z,17.35
2022-07-26T04:41:26.971Z,17.26
2022-07-26T04:42:29.071Z,17.21
2022-07-26T04:43:32.288Z,17.11
2022-07-26T04:44:35.776Z,17.07
2022-07-26T04:45:39.216Z,17.00
2022-07-26T04:46:45.209Z,16.93
2022-07-26T04:47:50.753Z,16.88
2022-07-26T04:48:52.991Z,16.81
2022-07-26T04:49:56.201Z,16.75
2022-07-26T04:51:00.565Z,16.70
2022-07-26T04:52:02.672Z,16.66
2022-07-26T04:53:05.798Z,16.62
2022-07-26T04:54:08.267Z,16.60
2022-07-26T04:55:11.818Z,16.58
2022-07-26T04:56:14.503Z,16.55
2022-07-26T04:57:17.638Z,16.51
2022-07-26T04:58:20.766Z,16.50
2022-07-26T04:59:22.825Z,16.47
2022-07-26T05:00:27.437Z,16.46
2022-07-26T05:01:29.651Z,16.47
2022-07-26T05:02:32.924Z,16.46
2022-07-26T05:03:36.201Z,16.45
2022-07-26T05:04:38.208Z,16.43
2022-07-26T05:05:41.375Z,16.40
2022-07-26T05:06:43.545Z,16.38
2022-07-26T05:07:48.849Z,16.35
2022-07-26T05:08:50.854Z,16.33
2022-07-26T05:09:54.044Z,16.30
2022-07-26T05:10:57.663Z,16.28
2022-07-26T05:12:00.096Z,16.27
2022-07-26T05:13:04.017Z,16.27
2022-07-26T05:14:06.490Z,16.25
2022-07-26T05:15:13.977Z,16.25
2022-07-26T05:16:17.988Z,16.25
2022-07-26T05:17:22.167Z,16.24
2022-07-26T05:18:31.617Z,16.24
2022-07-26T05:19:34.162Z,16.25
2022-07-26T05:20:38.429Z,16.26
2022-07-26T05:21:40.604Z,16.26
2022-07-26T05:22:44.005Z,16.26
2022-07-26T05:23:46.068Z,16.26
2022-07-26T05:24:49.146Z,16.26
2022-07-26T05:25:51.288Z,16.27
2022-07-26T05:26:58.338Z,16.26
2022-07-26T05:28:02.622Z,16.27
2022-07-26T05:29:04.985Z,16.26
2022-07-26T05:30:09.645Z,16.26
2022-07-26T05:31:11.878Z,16.26
2022-07-26T05:32:16.736Z,16.28
2022-07-26T05:33:19.956Z,16.28
2022-07-26T05:34:24.420Z,16.30
2022-07-26T05:35:28.180Z,16.31
2022-07-26T05:36:30.645Z,16.31
2022-07-26T05:37:33.820Z,16.33
2022-07-26T05:38:35.909Z,16.34
2022-07-26T05:39:39.047Z,16.34
2022-07-26T05:40:41.190Z,16.34
2022-07-26T05:41:44.287Z,16.35
2022-07-26T05:42:46.750Z,16.37
2022-07-26T05:43:50.081Z,16.36
2022-07-26T05:44:52.622Z,16.36
2022-07-26T05:45:57.746Z,16.36
2022-07-26T05:47:00.249Z,16.37
2022-07-26T05:48:04.970Z,16.37
2022-07-26T05:49:07.877Z,16.37
2022-07-26T05:50:11.541Z,16.37
2022-07-26T05:51:13.575Z,16.38
2022-07-26T05:52:16.652Z,16.39
2022-07-26T05:53:18.756Z,16.39
2022-07-26T05:54:22.864Z,16.40
2022-07-26T05:55:25.082Z,16.40
2022-07-26T05:56:28.169Z,16.40
2022-07-26T05:57:30.985Z,16.39
2022-07-26T05:58:34.056Z,16.43
2022-07-26T05:59:36.140Z,16.43
2022-07-26T06:00:39.217Z,16.44
2022-07-26T06:01:41.980Z,16.45
2022-07-26T06:02:45.405Z,16.47
2022-07-26T06:03:49.035Z,16.50
2022-07-26T06:04:52.412Z,16.52
2022-07-26T06:05:56.834Z,16.54
2022-07-26T06:06:59.948Z,16.58
2022-07-26T06:08:01.931Z,16.62
2022-07-26T06:09:05.483Z,16.65
2022-07-26T06:10:08.397Z,16.68
2022-07-26T06:11:11.429Z,16.70
2022-07-26T06:12:14.514Z,16.74
2022-07-26T06:13:16.814Z,16.75
2022-07-26T06:14:20.061Z,16.76
2022-07-26T06:15:23.229Z,16.76
2022-07-26T06:16:25.329Z,16.77
2022-07-26T06:17:30.242Z,16.76
2022-07-26T06:18:32.744Z,16.75
2022-07-26T06:19:37.367Z,16.75
2022-07-26T06:20:39.994Z,16.75
2022-07-26T06:21:43.841Z,16.75
2022-07-26T06:22:45.894Z,16.75
2022-07-26T06:23:49.400Z,16.75
2022-07-26T06:24:51.595Z,16.76
2022-07-26T06:25:54.821Z,16.78
2022-07-26T06:27:04.932Z,16.80
2022-07-26T06:28:11.262Z,16.86
2022-07-26T06:29:13.666Z,16.90
2022-07-26T06:30:16.724Z,16.93
2022-07-26T06:31:18.934Z,16.95
2022-07-26T06:32:22.061Z,16.98
2022-07-26T06:33:24.133Z,17.00
2022-07-26T06:34:27.228Z,17.02
2022-07-26T06:35:32.101Z,17.06
2022-07-26T06:36:35.424Z,17.12
2022-07-26T06:37:38.030Z,17.18
2022-07-26T06:38:41.318Z,17.24
2022-07-26T06:39:46.362Z,17.27
2022-07-26T06:40:48.469Z,17.30
2022-07-26T06:41:51.590Z,17.29
2022-07-26T06:43:04.079Z,17.30
2022-07-26T06:44:09.154Z,17.27
2022-07-26T06:45:13.254Z,17.25
2022-07-26T06:46:17.013Z,17.25
2022-07-26T06:47:19.174Z,17.23
2022-07-26T06:48:22.318Z,17.19
2022-07-26T06:49:25.901Z,17.15
2022-07-26T06:50:28.249Z,17.11
2022-07-26T06:51:32.806Z,17.07
2022-07-26T06:52:34.955Z,17.01
2022-07-26T06:53:38.041Z,16.97
2022-07-26T06:54:40.096Z,16.91
2022-07-26T06:55:43.643Z,16.87
2022-07-26T06:56:48.000Z,16.83
2022-07-26T06:57:50.646Z,16.80
2022-07-26T06:58:55.230Z,16.78
2022-07-26T06:59:57.621Z,16.77
2022-07-26T07:01:00.749Z,16.76
2022-07-26T07:02:02.975Z,16.78
2022-07-26T07:03:05.996Z,16.78
2022-07-26T07:04:09.077Z,16.77
2022-07-26T07:05:13.007Z,16.77
2022-07-26T07:06:16.211Z,16.76
2022-07-26T07:07:20.787Z,16.74
2022-07-26T07:08:24.955Z,16.76
2022-07-26T07:09:27.291Z,16.79
2022-07-26T07:10:30.998Z,16.82
2022-07-26T07:11:33.017Z,16.87
2022-07-26T07:12:36.170Z,16.91
2022-07-26T07:13:39.303Z,16.97
2022-07-26T07:14:41.830Z,17.00
2022-07-26T07:15:44.851Z,17.03
2022-07-26T07:16:48.086Z,17.04
2022-07-26T07:17:51.660Z,17.08
2022-07-26T07:18:54.766Z,17.11
2022-07-26T07:19:56.863Z,17.16
2022-07-26T07:20:59.907Z,17.20
2022-07-26T07:22:02.147Z,17.29
2022-07-26T07:23:06.541Z,17.36
2022-07-26T07:24:09.636Z,17.41
2022-07-26T07:25:14.607Z,17.48
2022-07-26T07:26:16.919Z,17.51
2022-07-26T07:27:19.987Z,17.54
2022-07-26T07:28:22.990Z,17.56
2022-07-26T07:29:27.025Z,17.57
2022-07-26T07:30:31.341Z,17.54
2022-07-26T07:31:48.169Z,17.50
2022-07-26T07:32:52.710Z,17.43
2022-07-26T07:33:54.897Z,17.35
2022-07-26T07:34:58.196Z,17.27
2022-07-26T07:36:01.336Z,17.18
2022-07-26T07:37:04.790Z,17.10
2022-07-26T07:38:11.966Z,17.01
2022-07-26T07:39:17.432Z,16.94
2022-07-26T07:40:20.794Z,16.88
2022-07-26T07:41:23.976Z,16.83
2022-07-26T07:42:26.065Z,16.80
2022-07-26T07:43:29.266Z,16.79
2022-07-26T07:44:31.636Z,16.80
2022-07-26T07:45:34.914Z,16.81
2022-07-26T07:46:36.973Z,16.83
2022-07-26T07:47:40.176Z,16.86
2022-07-26T07:48:47.386Z,16.88
2022-07-26T07:49:51.061Z,16.92
2022-07-26T07:50:54.346Z,16.96
2022-07-26T07:51:56.439Z,17.01
2022-07-26T07:52:59.469Z,17.04
2022-07-26T07:54:06.402Z,17.08
2022-07-26T07:55:36.635Z,17.13
2022-07-26T07:56:34.457Z,17.19
2022-07-26T07:57:37.012Z,17.24
2022-07-26T07:58:40.428Z,17.26
2022-07-26T07:59:43.887Z,17.30
2022-07-26T08:00:48.089Z,17.30
2022-07-26T08:01:52.112Z,17.32
2022-07-26T08:02:54.741Z,17.33
2022-07-26T08:03:57.908Z,17.37
2022-07-26T08:05:11.442Z,17.37
2022-07-26T08:06:18.676Z,17.39
2022-07-26T08:07:21.828Z,17.39
2022-07-26T08:08:25.578Z,17.39
2022-07-26T08:09:29.879Z,17.42
2022-07-26T08:10:41.748Z,17.45
2022-07-26T08:11:54.781Z,17.46
2022-07-26T08:12:56.891Z,17.51
2022-07-26T08:14:00.063Z,17.58
2022-07-26T08:15:02.606Z,17.65
2022-07-26T08:16:10.980Z,17.72
2022-07-26T08:17:14.233Z,17.80
2022-07-26T08:18:16.709Z,17.85
2022-07-26T08:19:20.018Z,17.92
2022-07-26T08:20:25.973Z,17.94
2022-07-26T08:21:29.139Z,17.95
2022-07-26T08:22:32.569Z,17.96
2022-07-26T08:23:35.981Z,17.96
2022-07-26T08:24:40.646Z,17.96
2022-07-26T08:25:55.639Z,17.99
2022-07-26T08:27:00.375Z,18.01
2022-07-26T08:28:04.116Z,18.04
2022-07-26T08:29:07.265Z,18.06
2022-07-26T08:30:10.530Z,18.07
2022-07-26T08:31:14.235Z,18.08
2022-07-26T08:32:17.514Z,18.06
2022-07-26T08:33:19.599Z,18.04
2022-07-26T08:34:22.730Z,18.01
2022-07-26T08:35:24.911Z,18.00
2022-07-26T08:36:32.366Z,17.99
2022-07-26T08:37:36.158Z,18.00
2022-07-26T08:38:38.856Z,18.00
2022-07-26T08:39:43.326Z,18.01
2022-07-26T08:40:45.630Z,18.04
2022-07-26T08:41:48.912Z,18.09
2022-07-26T08:42:52.664Z,18.16
2022-07-26T08:43:55.975Z,18.24
2022-07-26T08:44:59.240Z,18.34
2022-07-26T08:46:03.280Z,18.43
2022-07-26T08:47:06.520Z,18.53
2022-07-26T08:48:17.789Z,18.60
2022-07-26T08:49:21.744Z,18.65
2022-07-26T08:50:24.541Z,18.68
2022-07-26T08:51:27.929Z,18.67
2022-07-26T08:52:31.111Z,18.66
2022-07-26T08:53:35.082Z,18.62
2022-07-26T08:54:37.692Z,18.60
2022-07-26T08:56:06.037Z,18.55
2022-07-26T08:57:05.300Z,18.49
2022-07-26T08:58:08.520Z,18.40
2022-07-26T08:59:20.623Z,18.30
2022-07-26T09:00:26.975Z,18.17
2022-07-26T09:01:29.380Z,18.05
2022-07-26T09:02:41.136Z,17.95
2022-07-26T09:03:45.089Z,17.86
2022-07-26T09:04:48.716Z,17.80
2022-07-26T09:05:50.768Z,17.75
2022-07-26T09:06:59.874Z,17.71
2022-07-26T09:08:23.625Z,17.69
2022-07-26T09:09:25.907Z,17.69
2022-07-26T09:10:29.263Z,17.69
2022-07-26T09:11:33.714Z,17.72
2022-07-26T09:12:37.781Z,17.74
2022-07-26T09:13:51.980Z,17.75
2022-07-26T09:14:55.659Z,17.76
2022-07-26T09:16:13.965Z,17.74
2022-07-26T09:17:18.801Z,17.73
2022-07-26T09:18:28.901Z,17.72
2022-07-26T09:19:32.063Z,17.73
2022-07-26T09:20:35.158Z,17.77
2022-07-26T09:21:37.194Z,17.80
2022-07-26T09:22:57.007Z,17.87
2022-07-26T09:23:59.921Z,17.95
2022-07-26T09:25:02.923Z,18.04
2022-07-26T09:26:05.306Z,18.17
2022-07-26T09:27:12.185Z,18.30
2022-07-26T09:28:23.919Z,18.46
2022-07-26T09:29:26.063Z,18.57
2022-07-26T09:30:30.223Z,18.64
2022-07-26T09:31:32.747Z,18.70
2022-07-26T09:32:36.895Z,18.75
2022-07-26T09:33:46.329Z,18.79
2022-07-26T09:34:54.339Z,18.82
2022-07-26T09:36:01.588Z,18.81
2022-07-26T09:37:07.377Z,18.84
2022-07-26T09:38:15.395Z,18.88
2022-07-26T09:39:17.648Z,18.90
2022-07-26T09:40:33.377Z,18.97
2022-07-26T09:41:36.993Z,19.03
2022-07-26T09:42:54.406Z,19.12
2022-07-26T09:44:00.138Z,19.20
2022-07-26T09:45:02.650Z,19.26
2022-07-26T09:46:07.350Z,19.32
2022-07-26T09:47:09.818Z,19.31
2022-07-26T09:48:13.346Z,19.33
2022-07-26T09:49:20.078Z,19.30
2022-07-26T09:50:24.818Z,19.28
2022-07-26T09:51:40.484Z,19.25
2022-07-26T09:52:59.337Z,19.18
2022-07-26T09:54:02.371Z,19.13
2022-07-26T09:55:07.466Z,19.09
2022-07-26T09:56:09.517Z,19.06
2022-07-26T09:57:13.144Z,19.04
2022-07-26T09:58:19.155Z,19.04
2022-07-26T09:59:23.257Z,19.05
2022-07-26T10:00:26.739Z,19.07
2022-07-26T10:01:30.046Z,19.13
2022-07-26T10:02:33.008Z,19.20
2022-07-26T10:03:36.894Z,19.26
2022-07-26T10:04:39.212Z,19.31
2022-07-26T10:05:42.856Z,19.37
2022-07-26T10:06:45.286Z,19.44
2022-07-26T10:07:49.359Z,19.49
2022-07-26T10:08:52.008Z,19.57
2022-07-26T10:09:59.904Z,19.62
2022-07-26T10:11:05.442Z,19.65
2022-07-26T10:12:10.269Z,19.69
2022-07-26T10:13:12.973Z,19.69
2022-07-26T10:14:36.439Z,19.73
2022-07-26T10:15:44.490Z,19.75
2022-07-26T10:16:49.415Z,19.73
2022-07-26T10:17:54.207Z,19.70
2022-07-26T10:18:57.989Z,19.67
2022-07-26T10:20:01.925Z,19.64
2022-07-26T10:21:20.505Z,19.61
2022-07-26T10:22:23.486Z,19.60
2022-07-26T10:23:51.168Z,19.62
2022-07-26T10:24:58.010Z,19.64
2022-07-26T10:26:02.333Z,19.67
2022-07-26T10:27:06.171Z,19.69
2022-07-26T10:28:24.102Z,19.69
2022-07-26T10:29:30.400Z,19.67
2022-07-26T10:30:35.299Z,19.64
2022-07-26T10:31:38.821Z,19.61
2022-07-26T10:32:43.457Z,19.62
2022-07-26T10:33:51.501Z,19.67
2022-07-26T10:34:56.912Z,19.73
2022-07-26T10:35:59.343Z,19.79
2022-07-26T10:37:05.466Z,19.84
2022-07-26T10:38:09.777Z,19.89
2022-07-26T10:39:15.572Z,19.94
2022-07-26T10:40:21.053Z,19.94
2022-07-26T10:41:33.147Z,19.98
2022-07-26T10:42:46.153Z,19.98
2022-07-26T10:44:13.222Z,19.97
2022-07-26T10:45:24.345Z,19.96
2022-07-26T10:46:29.696Z,19.94
2022-07-26T10:47:35.369Z,19.91
2022-07-26T10:48:55.832Z,19.87
2022-07-26T10:50:00.898Z,19.81
2022-07-26T10:51:29.722Z,19.75
2022-07-26T10:52:34.008Z,19.72
2022-07-26T10:53:37.271Z,19.71
2022-07-26T10:55:09.005Z,19.75
2022-07-26T10:56:12.071Z,19.80
2022-07-26T10:57:14.111Z,19.88
2022-07-26T10:58:18.529Z,19.92
2022-07-26T10:59:54.422Z,19.96
2022-07-26T11:00:59.315Z,19.96
2022-07-26T11:02:02.171Z,19.94
2022-07-26T11:03:05.484Z,19.92
2022-07-26T11:04:19.031Z,19.87
2022-07-26T11:05:23.109Z,19.81
2022-07-26T11:06:31.147Z,19.77
2022-07-26T11:07:33.251Z,19.71
2022-07-26T11:08:36.940Z,19.68
2022-07-26T11:09:39.571Z,19.66
2022-07-26T11:10:44.027Z,19.65
2022-07-26T11:11:47.311Z,19.64
2022-07-26T11:12:59.852Z,19.65
2022-07-26T11:14:07.966Z,19.67
2022-07-26T11:15:17.961Z,19.69
2022-07-26T11:16:23.415Z,19.71
2022-07-26T11:17:29.473Z,19.70
2022-07-26T11:18:35.338Z,19.73
2022-07-26T11:19:39.893Z,19.74
2022-07-26T11:20:45.557Z,19.76
2022-07-26T11:21:56.559Z,19.80
2022-07-26T11:22:58.728Z,19.85
2022-07-26T11:24:04.426Z,19.90
2022-07-26T11:25:06.996Z,19.95
2022-07-26T11:26:16.211Z,20.01
2022-07-26T11:27:19.225Z,20.01
2022-07-26T11:28:23.593Z,20.02
2022-07-26T11:29:38.690Z,20.02
2022-07-26T11:30:56.257Z,20.06
2022-07-26T11:32:04.804Z,20.14
2022-07-26T11:33:18.777Z,20.28
2022-07-26T11:34:25.296Z,20.37
2022-07-26T11:35:30.128Z,20.47
2022-07-26T11:36:36.193Z,20.54
2022-07-26T11:37:40.725Z,20.56
2022-07-26T11:38:48.364Z,20.60
2022-07-26T11:39:51.433Z,20.62
2022-07-26T11:40:53.737Z,20.66
2022-07-26T11:41:59.254Z,20.69
2022-07-26T11:43:01.405Z,20.75
2022-07-26T11:44:05.969Z,20.75
2022-07-26T11:45:10.452Z,20.77
2022-07-26T11:46:13.566Z,20.74
2022-07-26T11:47:19.967Z,20.68
2022-07-26T11:48:22.108Z,20.67
2022-07-26T11:49:51.726Z,20.65
2022-07-26T11:50:49.552Z,20.68
2022-07-26T11:51:54.981Z,20.75
2022-07-26T11:52:58.501Z,20.84
2022-07-26T11:54:04.834Z,20.92
2022-07-26T11:55:09.075Z,20.99
2022-07-26T11:56:16.025Z,21.09
2022-07-26T11:57:20.619Z,21.17
2022-07-26T11:58:22.769Z,21.24
2022-07-26T11:59:28.366Z,21.29
2022-07-26T12:00:30.698Z,21.34
2022-07-26T12:01:33.951Z,21.33
2022-07-26T12:02:37.499Z,21.32
2022-07-26T12:03:41.704Z,21.31
2022-07-26T12:04:45.905Z,21.29
2022-07-26T12:06:02.604Z,21.30
2022-07-26T12:07:11.278Z,21.30
2022-07-26T12:08:14.781Z,21.30
2022-07-26T12:09:34.120Z,21.27
2022-07-26T12:10:37.239Z,21.24
2022-07-26T12:11:41.847Z,21.20
2022-07-26T12:12:45.005Z,21.15
2022-07-26T12:13:59.120Z,21.05
2022-07-26T12:15:04.642Z,20.98
2022-07-26T12:16:07.748Z,20.90
2022-07-26T12:17:15.095Z,20.83
2022-07-26T12:18:25.165Z,20.76
2022-07-26T12:20:32.141Z,20.67
2022-07-26T12:21:48.203Z,20.65
2022-07-26T12:22:56.067Z,20.66
2022-07-26T12:23:59.665Z,20.69
2022-07-26T12:25:03.205Z,20.75
2022-07-26T12:26:19.014Z,20.82
2022-07-26T12:27:24.301Z,20.90
2022-07-26T12:28:41.436Z,20.96
2022-07-26T12:29:46.418Z,21.03
2022-07-26T12:30:49.248Z,21.10
2022-07-26T12:32:12.770Z,21.20
2022-07-26T12:33:14.988Z,21.27
2022-07-26T12:34:21.471Z,21.32
2022-07-26T12:35:32.312Z,21.41
2022-07-26T12:36:34.473Z,21.51
2022-07-26T12:37:41.018Z,21.64
2022-07-26T12:38:44.127Z,21.72
2022-07-26T12:40:08.093Z,21.74
2022-07-26T12:41:10.804Z,21.76
2022-07-26T12:42:33.021Z,21.65
2022-07-26T12:43:42.058Z,21.54
2022-07-26T12:44:44.310Z,21.46
2022-07-26T12:45:47.371Z,21.41
2022-07-26T12:46:49.538Z,21.37
2022-07-26T12:47:54.568Z,21.37
2022-07-26T12:49:00.205Z,21.34
2022-07-26T12:50:03.932Z,21.30
2022-07-26T12:51:07.525Z,21.21
2022-07-26T12:52:09.767Z,21.15
2022-07-26T12:53:13.070Z,21.06
2022-07-26T12:54:15.638Z,20.99
2022-07-26T12:55:22.210Z,20.92
2022-07-26T12:56:24.307Z,20.86
2022-07-26T12:57:27.802Z,20.80
2022-07-26T12:58:30.443Z,20.75
2022-07-26T12:59:33.734Z,20.69
2022-07-26T13:00:37.497Z,20.69
2022-07-26T13:01:39.761Z,20.71
2022-07-26T13:02:44.604Z,20.74
2022-07-26T13:03:47.403Z,20.79
2022-07-26T13:04:54.339Z,20.81
2022-07-26T13:06:00.222Z,20.83
2022-07-26T13:07:02.666Z,20.84
2022-07-26T13:08:06.155Z,20.80
2022-07-26T13:09:08.505Z,20.74
2022-07-26T13:11:37.044Z,20.63
2022-07-26T13:12:40.296Z,20.62
2022-07-26T13:13:42.333Z,20.64
2022-07-26T13:14:45.566Z,20.73
2022-07-26T13:15:47.877Z,20.85
2022-07-26T13:16:51.039Z,21.00
2022-07-26T13:17:54.222Z,21.11
2022-07-26T13:18:58.044Z,21.20
2022-07-26T13:20:01.236Z,21.22
2022-07-26T13:21:03.656Z,21.23
2022-07-26T13:22:08.613Z,21.19
2022-07-26T13:23:12.765Z,21.12
2022-07-26T13:24:18.910Z,21.01
2022-07-26T13:25:23.451Z,20.91
2022-07-26T13:26:28.995Z,20.81
2022-07-26T13:27:36.677Z,20.71
2022-07-26T13:28:40.640Z,20.60
2022-07-26T13:29:43.740Z,20.51
2022-07-26T13:30:45.901Z,20.42
2022-07-26T13:31:50.938Z,20.33
2022-07-26T13:32:53.928Z,20.28
2022-07-26T13:33:56.939Z,20.29
2022-07-26T13:34:59.979Z,20.40
2022-07-26T13:36:02.212Z,20.55
2022-07-26T13:37:08.434Z,20.77
2022-07-26T13:38:10.932Z,21.03
2022-07-26T13:39:14.063Z,21.29
2022-07-26T13:40:16.294Z,21.56
2022-07-26T13:41:19.345Z,21.81
2022-07-26T13:42:22.354Z,22.06
2022-07-26T13:43:25.808Z,22.26
2022-07-26T13:44:28.912Z,22.39
2022-07-26T13:45:30.968Z,22.48
2022-07-26T13:46:34.149Z,22.55
2022-07-26T13:47:36.557Z,22.62
2022-07-26T13:48:52.763Z,22.68
2022-07-26T13:50:02.810Z,22.78
2022-07-26T13:51:05.597Z,22.93
2022-07-26T13:52:12.155Z,23.06
2022-07-26T13:53:18.697Z,23.19
2022-07-26T13:54:22.082Z,23.26
2022-07-26T13:55:25.512Z,23.26
2022-07-26T13:56:28.517Z,23.21
2022-07-26T13:57:49.717Z,23.10